Time;durP1;ratioP1;P1;durP2;ratioP2;P2;SDS_P1;SDS_P2;PMS_P1;PMS_P2;Temp;Humidity;BMP_temperature;BMP_pressure;BME280_temperature;BME280_humidity;BME280_pressure;Samples;Min_cycle;Max_cycle;Signal;HPM_P1;HPM_P2
2023/03/05 00:00:16;;;;;;;15.05;3.10;;;;;;;;;;5024900;28;20042;-61
2023/03/05 00:02:41;;;;;;;12.30;3.50;;;;;;;;;;5031704;28;20041;-61
2023/03/05 00:05:07;;;;;;;10.63;2.67;;;;;;;;;;5024152;28;20038;-61
2023/03/05 00:07:33;;;;;;;11.30;2.97;;;;;;;;;;5030826;28;20448;-61
2023/03/05 00:09:59;;;;;;;9.27;3.35;;;;;;;;;;5016444;28;20113;-61
2023/03/05 00:12:25;;;;;;;11.80;3.00;;;;;;;;;;5015553;28;20469;-62
2023/03/05 00:14:50;;;;;;;10.38;2.65;;;;;;;;;;5025709;28;20026;-60
2023/03/05 00:17:15;;;;;;;12.35;2.90;;;;;;;;;;5028909;28;20033;-61
2023/03/05 00:19:41;;;;;;;16.98;4.10;;;;;;;;;;5017527;28;20037;-61
2023/03/05 00:22:06;;;;;;;10.65;2.80;;;;;;;;;;5030777;28;20033;-60
2023/03/05 00:24:32;;;;;;;10.50;2.70;;;;;;;;;;5019959;28;20084;-61
2023/03/05 00:26:57;;;;;;;13.57;3.00;;;;;;;;;;5011311;28;20108;-62
2023/03/05 00:29:23;;;;;;;10.35;2.85;;;;;;;;;;5031469;28;20234;-62
2023/03/05 00:31:48;;;;;;;10.95;2.95;;;;;;;;;;5032088;28;20116;-61
2023/03/05 00:34:17;;;;;;;8.80;2.40;;;;;;;;;;5017256;28;20500;-62
2023/03/05 00:36:45;;;;;;;9.20;2.80;;;;;;;;;;5029363;28;20036;-62
2023/03/05 00:39:12;;;;;;;15.57;3.20;;;;;;;;;;5006539;28;20080;-62
2023/03/05 00:41:38;;;;;;;12.13;2.90;;;;;;;;;;5013701;28;20037;-62
2023/03/05 00:44:03;;;;;;;10.07;3.10;;;;;;;;;;5021701;28;20041;-63
2023/03/05 00:46:29;;;;;;;10.07;2.83;;;;;;;;;;5028139;28;20484;-61
2023/03/05 00:48:55;;;;;;;9.93;3.47;;;;;;;;;;5014843;28;20032;-61
2023/03/05 00:51:21;;;;;;;11.00;3.00;;;;;;;;;;5014281;28;20490;-61
2023/03/05 00:53:47;;;;;;;11.10;3.08;;;;;;;;;;5028026;28;20057;-61
2023/03/05 00:56:12;;;;;;;8.32;2.55;;;;;;;;;;5017281;28;20033;-61
2023/03/05 00:58:38;;;;;;;11.93;2.60;;;;;;;;;;5014111;28;20398;-61
2023/03/05 01:01:04;;;;;;;12.20;3.47;;;;;;;;;;5021604;28;20033;-61
2023/03/05 01:03:32;;;;;;;9.43;2.50;;;;;;;;;;5035086;28;20045;-61
2023/03/05 01:05:59;;;;;;;9.82;2.80;;;;;;;;;;5015223;28;20489;-61
2023/03/05 01:08:25;;;;;;;8.48;2.78;;;;;;;;;;5031946;28;20033;-60
2023/03/05 01:10:51;;;;;;;8.15;2.55;;;;;;;;;;5032850;28;20033;-62
2023/03/05 01:13:17;;;;;;;7.55;3.17;;;;;;;;;;5031353;28;20079;-61
2023/03/05 01:15:42;;;;;;;12.00;3.05;;;;;;;;;;5039966;28;20033;-62
2023/03/05 01:18:08;;;;;;;7.75;2.80;;;;;;;;;;5030667;28;20052;-62
2023/03/05 01:20:33;;;;;;;11.23;2.92;;;;;;;;;;5036495;28;20038;-62
2023/03/05 01:23:00;;;;;;;9.25;2.70;;;;;;;;;;5026599;28;20071;-62
2023/03/05 01:25:26;;;;;;;13.93;2.88;;;;;;;;;;5015229;28;20064;-61
2023/03/05 01:27:51;;;;;;;9.77;2.70;;;;;;;;;;5014116;28;20069;-62
2023/03/05 01:30:17;;;;;;;10.73;2.78;;;;;;;;;;5018663;28;20056;-63
2023/03/05 01:32:42;;;;;;;10.55;3.10;;;;;;;;;;5028485;28;20076;-61
2023/03/05 01:35:14;;;;;;;7.88;2.40;;;;;;;;;;5030221;28;20055;-61
2023/03/05 01:37:39;;;;;;;10.52;2.90;;;;;;;;;;5015839;28;20422;-62
2023/03/05 01:40:05;;;;;;;8.82;2.30;;;;;;;;;;5020945;28;20026;-62
2023/03/05 01:42:31;;;;;;;6.15;2.28;;;;;;;;;;5029974;28;20034;-62
2023/03/05 01:45:06;;;;;;;9.48;2.60;;;;;;;;;;5027601;28;20046;-62
2023/03/05 01:47:31;;;;;;;7.10;2.50;;;;;;;;;;5028885;28;20083;-62
2023/03/05 01:49:57;;;;;;;9.45;2.47;;;;;;;;;;5030146;28;20029;-61
2023/03/05 01:52:24;;;;;;;10.55;2.80;;;;;;;;;;5027576;28;20446;-61
2023/03/05 01:54:52;;;;;;;6.78;2.60;;;;;;;;;;5029262;28;20029;-61
2023/03/05 01:57:29;;;;;;;9.43;2.50;;;;;;;;;;5028753;28;20532;-61
2023/03/05 01:59:59;;;;;;;7.25;2.60;;;;;;;;;;5028925;28;20042;-61
2023/03/05 02:02:25;;;;;;;9.50;2.38;;;;;;;;;;5025519;28;20159;-62
2023/03/05 02:04:58;;;;;;;7.97;2.90;;;;;;;;;;5030707;28;20481;-61
2023/03/05 02:07:24;;;;;;;8.75;2.50;;;;;;;;;;5027353;28;20393;-61
2023/03/05 02:09:49;;;;;;;6.10;2.20;;;;;;;;;;5027209;28;20033;-60
2023/03/05 02:12:15;;;;;;;12.45;2.40;;;;;;;;;;5012608;28;20030;-61
2023/03/05 02:14:45;;;;;;;9.68;2.45;;;;;;;;;;4995708;28;20091;-61
2023/03/05 02:17:11;;;;;;;6.32;1.90;;;;;;;;;;5018698;28;20112;-61
2023/03/05 02:19:48;;;;;;;7.80;2.63;;;;;;;;;;5025708;28;20109;-61
2023/03/05 02:22:15;;;;;;;6.90;2.38;;;;;;;;;;5023526;28;20029;-61
2023/03/05 02:24:40;;;;;;;7.88;2.13;;;;;;;;;;5020836;28;20038;-62
2023/03/05 02:27:06;;;;;;;9.07;1.90;;;;;;;;;;5028717;28;20496;-61
2023/03/05 02:29:33;;;;;;;5.35;1.90;;;;;;;;;;5030954;28;20021;-61
2023/03/05 02:31:59;;;;;;;7.47;2.15;;;;;;;;;;5033798;28;20033;-61
2023/03/05 02:34:25;;;;;;;9.40;2.17;;;;;;;;;;5031341;28;20034;-61
2023/03/05 02:36:50;;;;;;;5.00;1.83;;;;;;;;;;5036004;28;20045;-60
2023/03/05 02:39:16;;;;;;;7.60;2.17;;;;;;;;;;5034706;28;20025;-62
2023/03/05 02:41:41;;;;;;;7.35;2.00;;;;;;;;;;5035815;28;20052;-61
2023/03/05 02:44:07;;;;;;;7.10;2.00;;;;;;;;;;5034936;28;20382;-62
2023/03/05 02:46:33;;;;;;;7.45;1.92;;;;;;;;;;5034848;28;20022;-60
2023/03/05 02:48:58;;;;;;;7.03;2.00;;;;;;;;;;5032443;28;20107;-61
2023/03/05 02:51:24;;;;;;;7.90;2.33;;;;;;;;;;5032397;28;20357;-62
2023/03/05 02:53:49;;;;;;;10.18;2.20;;;;;;;;;;5031653;28;20026;-61
2023/03/05 02:56:14;;;;;;;6.53;1.95;;;;;;;;;;5032995;28;20096;-63
2023/03/05 02:58:40;;;;;;;11.63;3.20;;;;;;;;;;5033919;28;20044;-61
2023/03/05 03:01:07;;;;;;;7.55;2.33;;;;;;;;;;5031203;28;20034;-60
2023/03/05 03:03:33;;;;;;;8.85;2.30;;;;;;;;;;5029534;28;20036;-62
2023/03/05 03:05:58;;;;;;;12.15;2.50;;;;;;;;;;5014102;28;20022;-61
2023/03/05 03:08:24;;;;;;;8.15;2.67;;;;;;;;;;5030739;28;20040;-61
2023/03/05 03:10:49;;;;;;;13.75;3.03;;;;;;;;;;5037821;28;20036;-61
2023/03/05 03:13:14;;;;;;;10.23;2.80;;;;;;;;;;5034050;28;20029;-61
2023/03/05 03:15:40;;;;;;;10.73;2.60;;;;;;;;;;5034552;28;20390;-61
2023/03/05 03:18:05;;;;;;;10.00;3.03;;;;;;;;;;5034560;28;20120;-60
2023/03/05 03:20:33;;;;;;;10.30;2.90;;;;;;;;;;5034175;28;20029;-61
2023/03/05 03:22:59;;;;;;;10.35;3.08;;;;;;;;;;5025366;28;20043;-61
2023/03/05 03:25:24;;;;;;;8.13;2.80;;;;;;;;;;5025745;28;20366;-62
2023/03/05 03:27:50;;;;;;;14.00;3.00;;;;;;;;;;5014845;28;20116;-62
2023/03/05 03:30:15;;;;;;;8.32;2.83;;;;;;;;;;5033001;28;20457;-63
2023/03/05 03:32:41;;;;;;;14.73;3.00;;;;;;;;;;5032497;28;20033;-61
2023/03/05 03:35:07;;;;;;;11.65;3.15;;;;;;;;;;5030448;28;20034;-61
2023/03/05 03:37:33;;;;;;;9.43;3.15;;;;;;;;;;5029433;28;20178;-62
2023/03/05 03:39:58;;;;;;;13.38;3.42;;;;;;;;;;5033983;28;20028;-61
2023/03/05 03:42:24;;;;;;;12.77;3.60;;;;;;;;;;5018986;28;20052;-62
2023/03/05 03:44:50;;;;;;;9.15;3.72;;;;;;;;;;5021904;28;20366;-61
2023/03/05 03:47:15;;;;;;;15.90;5.05;;;;;;;;;;5030363;28;20083;-62
2023/03/05 03:49:41;;;;;;;10.00;3.65;;;;;;;;;;5031544;28;20038;-61
2023/03/05 03:52:07;;;;;;;12.82;4.50;;;;;;;;;;5032927;28;20033;-62
2023/03/05 03:54:32;;;;;;;10.45;3.65;;;;;;;;;;5030665;28;20034;-61
2023/03/05 03:56:58;;;;;;;13.30;4.03;;;;;;;;;;5033214;28;20393;-61
2023/03/05 03:59:23;;;;;;;15.68;3.83;;;;;;;;;;5031498;28;20037;-61
2023/03/05 04:01:49;;;;;;;11.95;4.30;;;;;;;;;;5030175;28;20036;-60
2023/03/05 04:04:14;;;;;;;11.63;3.75;;;;;;;;;;5028370;28;20069;-62
2023/03/05 04:06:40;;;;;;;12.27;4.10;;;;;;;;;;5021118;28;20033;-61
2023/03/05 04:09:09;;;;;;;13.38;4.40;;;;;;;;;;5027261;28;20029;-61
2023/03/05 04:11:36;;;;;;;14.07;4.00;;;;;;;;;;5016592;28;20041;-61
2023/03/05 04:14:02;;;;;;;10.43;4.30;;;;;;;;;;5028866;28;20043;-61
2023/03/05 04:16:27;;;;;;;13.48;3.88;;;;;;;;;;5012172;28;20465;-61
2023/03/05 04:18:53;;;;;;;11.32;3.90;;;;;;;;;;5026852;28;20038;-62
2023/03/05 04:21:18;;;;;;;10.95;3.53;;;;;;;;;;5031338;28;20033;-62
2023/03/05 04:23:43;;;;;;;9.63;4.07;;;;;;;;;;5018834;28;20038;-62
2023/03/05 04:26:09;;;;;;;19.52;4.57;;;;;;;;;;5031579;28;20095;-62
2023/03/05 04:28:34;;;;;;;12.40;4.40;;;;;;;;;;5031694;28;20025;-61
2023/03/05 04:31:00;;;;;;;14.23;4.30;;;;;;;;;;5016106;28;20044;-61
2023/03/05 04:33:25;;;;;;;13.15;3.67;;;;;;;;;;5030429;28;20129;-62
2023/03/05 04:35:51;;;;;;;10.88;3.35;;;;;;;;;;5030680;28;20057;-62
2023/03/05 04:38:16;;;;;;;10.20;3.45;;;;;;;;;;5028602;28;20108;-61
2023/03/05 04:40:44;;;;;;;9.73;3.35;;;;;;;;;;5031131;28;20029;-61
2023/03/05 04:43:09;;;;;;;11.63;3.35;;;;;;;;;;5031976;28;20572;-61
2023/03/05 04:45:37;;;;;;;8.93;3.08;;;;;;;;;;5028195;28;20132;-62
2023/03/05 04:48:03;;;;;;;10.90;3.40;;;;;;;;;;5032441;28;20034;-61
2023/03/05 04:50:28;;;;;;;13.07;3.22;;;;;;;;;;5013203;28;20036;-61
2023/03/05 04:52:55;;;;;;;9.70;3.72;;;;;;;;;;5031116;28;20444;-62
2023/03/05 04:55:20;;;;;;;8.32;3.42;;;;;;;;;;5029218;28;20040;-62
2023/03/05 04:57:45;;;;;;;9.50;3.30;;;;;;;;;;5030356;28;20385;-61
2023/03/05 05:00:13;;;;;;;5.15;2.80;;;;;;;;;;5029730;28;20033;-61
2023/03/05 05:02:43;;;;;;;10.93;3.35;;;;;;;;;;5012795;28;20045;-61
2023/03/05 05:05:12;;;;;;;10.68;3.33;;;;;;;;;;5028262;28;21203;-61
2023/03/05 05:07:38;;;;;;;10.18;2.70;;;;;;;;;;5030216;28;20128;-61
2023/03/05 05:10:04;;;;;;;8.55;3.33;;;;;;;;;;5013848;28;20116;-60
2023/03/05 05:12:30;;;;;;;9.13;3.40;;;;;;;;;;5032807;28;20037;-61
2023/03/05 05:14:57;;;;;;;10.70;3.08;;;;;;;;;;5036284;28;20446;-62
2023/03/05 05:17:22;;;;;;;8.30;3.40;;;;;;;;;;5013511;28;20120;-61
2023/03/05 05:19:48;;;;;;;9.45;3.70;;;;;;;;;;5033013;28;20112;-62
2023/03/05 05:22:14;;;;;;;9.23;3.90;;;;;;;;;;5015154;28;20029;-60
2023/03/05 05:24:39;;;;;;;14.30;6.35;;;;;;;;;;5023793;28;20189;-61
2023/03/05 05:27:04;;;;;;;20.88;7.30;;;;;;;;;;5014921;28;20026;-60
2023/03/05 05:29:30;;;;;;;15.20;7.55;;;;;;;;;;5024520;28;20033;-60
2023/03/05 05:31:56;;;;;;;17.83;7.25;;;;;;;;;;5032830;28;20033;-63
2023/03/05 05:34:23;;;;;;;18.65;7.15;;;;;;;;;;5036183;28;20090;-61
2023/03/05 05:36:49;;;;;;;11.90;5.43;;;;;;;;;;5016516;28;20053;-60
2023/03/05 05:39:14;;;;;;;11.32;5.63;;;;;;;;;;5030069;28;20088;-61
2023/03/05 05:41:40;;;;;;;14.88;4.60;;;;;;;;;;5031064;28;20045;-60
2023/03/05 05:44:05;;;;;;;10.88;3.90;;;;;;;;;;5022999;28;20484;-61
2023/03/05 05:46:30;;;;;;;9.55;3.75;;;;;;;;;;5023665;28;20041;-61
2023/03/05 05:48:56;;;;;;;13.90;4.93;;;;;;;;;;5008942;28;20037;-61
2023/03/05 05:51:22;;;;;;;9.35;3.88;;;;;;;;;;5014698;28;20462;-61
2023/03/05 05:53:48;;;;;;;10.68;3.53;;;;;;;;;;5018819;28;20041;-60
2023/03/05 05:56:15;;;;;;;8.85;3.75;;;;;;;;;;5028752;28;20029;-60
2023/03/05 05:58:43;;;;;;;8.82;3.45;;;;;;;;;;5026332;28;20866;-61
2023/03/05 06:01:25;;;;;;;8.57;3.92;;;;;;;;;;5017096;28;20033;-60
2023/03/05 06:03:51;;;;;;;8.73;3.92;;;;;;;;;;5023529;28;20021;-60
2023/03/05 06:06:19;;;;;;;11.93;3.67;;;;;;;;;;5027931;28;20179;-60
2023/03/05 06:08:44;;;;;;;9.63;3.65;;;;;;;;;;5022885;28;20058;-60
2023/03/05 06:11:10;;;;;;;5.72;2.47;;;;;;;;;;5023173;28;20110;-60
2023/03/05 06:13:36;;;;;;;9.85;3.22;;;;;;;;;;5031983;28;20113;-62
2023/03/05 06:16:05;;;;;;;15.77;3.38;;;;;;;;;;5030688;28;20030;-60
2023/03/05 06:18:31;;;;;;;9.35;2.95;;;;;;;;;;5009270;28;20034;-60
2023/03/05 06:20:59;;;;;;;11.25;2.70;;;;;;;;;;5017703;28;20038;-59
2023/03/05 06:23:26;;;;;;;13.48;3.47;;;;;;;;;;5010633;28;20046;-60
2023/03/05 06:25:52;;;;;;;10.20;3.25;;;;;;;;;;5024348;28;20029;-59
2023/03/05 06:28:18;;;;;;;14.90;3.78;;;;;;;;;;5017820;28;20088;-59
2023/03/05 06:30:43;;;;;;;11.00;4.15;;;;;;;;;;5022080;28;20108;-60
2023/03/05 06:33:09;;;;;;;11.02;4.15;;;;;;;;;;5026630;28;20425;-59
2023/03/05 06:35:39;;;;;;;11.05;4.13;;;;;;;;;;5029656;28;20037;-59
2023/03/05 06:38:06;;;;;;;14.88;4.57;;;;;;;;;;5031714;28;20033;-58
2023/03/05 06:40:31;;;;;;;12.70;4.15;;;;;;;;;;5030349;28;20050;-62
2023/03/05 06:42:57;;;;;;;12.60;4.60;;;;;;;;;;5031302;28;20109;-59
2023/03/05 06:45:22;;;;;;;14.05;4.60;;;;;;;;;;5031264;28;20057;-60
2023/03/05 06:47:47;;;;;;;8.00;3.50;;;;;;;;;;5030587;28;20458;-60
2023/03/05 06:50:13;;;;;;;13.63;4.35;;;;;;;;;;5031278;28;20033;-60
2023/03/05 06:52:39;;;;;;;11.40;4.20;;;;;;;;;;5030317;28;20547;-60
2023/03/05 06:55:06;;;;;;;14.73;4.60;;;;;;;;;;5041663;28;20065;-59
2023/03/05 06:57:31;;;;;;;12.82;4.60;;;;;;;;;;5033805;28;20045;-60
2023/03/05 06:59:57;;;;;;;10.73;3.97;;;;;;;;;;5031061;28;20033;-60
2023/03/05 07:02:22;;;;;;;14.75;4.68;;;;;;;;;;5030737;28;20033;-59
2023/03/05 07:04:47;;;;;;;14.35;4.82;;;;;;;;;;5030563;28;20041;-59
2023/03/05 07:07:13;;;;;;;11.68;4.65;;;;;;;;;;5031175;28;20409;-60
2023/03/05 07:09:41;;;;;;;11.55;4.30;;;;;;;;;;5030395;28;20041;-61
2023/03/05 07:12:09;;;;;;;15.80;5.60;;;;;;;;;;5030718;28;20085;-60
2023/03/05 07:14:36;;;;;;;15.80;5.78;;;;;;;;;;5029853;28;20116;-61
2023/03/05 07:17:01;;;;;;;17.45;5.82;;;;;;;;;;5030927;28;20036;-60
2023/03/05 07:19:26;;;;;;;14.07;5.55;;;;;;;;;;5030567;28;20120;-61
2023/03/05 07:21:52;;;;;;;11.15;5.57;;;;;;;;;;5033326;28;20037;-61
2023/03/05 07:24:17;;;;;;;15.13;6.20;;;;;;;;;;5034994;28;20030;-62
2023/03/05 07:26:43;;;;;;;18.17;6.53;;;;;;;;;;5034019;28;20025;-62
2023/03/05 07:29:08;;;;;;;13.50;5.80;;;;;;;;;;5034553;28;20021;-62
2023/03/05 07:31:34;;;;;;;16.30;6.03;;;;;;;;;;5033028;28;20127;-63
2023/03/05 07:34:01;;;;;;;14.80;5.97;;;;;;;;;;5034814;28;20551;-63
2023/03/05 07:36:27;;;;;;;10.27;4.50;;;;;;;;;;5034568;28;20025;-63
2023/03/05 07:38:52;;;;;;;10.40;5.57;;;;;;;;;;5034081;28;20033;-62
2023/03/05 07:41:18;;;;;;;12.50;5.53;;;;;;;;;;5034693;28;20029;-62
2023/03/05 07:43:45;;;;;;;15.18;6.20;;;;;;;;;;5015870;28;20041;-63
2023/03/05 07:46:14;;;;;;;12.68;6.40;;;;;;;;;;5034237;28;20059;-62
2023/03/05 07:48:39;;;;;;;14.57;6.65;;;;;;;;;;5032982;28;20033;-63
2023/03/05 07:51:08;;;;;;;13.98;6.68;;;;;;;;;;5034728;28;20033;-63
2023/03/05 07:53:33;;;;;;;12.88;5.43;;;;;;;;;;5031096;28;20038;-63
2023/03/05 07:55:59;;;;;;;16.58;6.22;;;;;;;;;;5034332;28;20355;-63
2023/03/05 07:58:24;;;;;;;17.15;5.47;;;;;;;;;;5033337;28;20037;-63
2023/03/05 08:00:50;;;;;;;14.70;5.85;;;;;;;;;;5021249;28;20091;-63
2023/03/05 08:03:15;;;;;;;9.95;4.93;;;;;;;;;;5033911;28;20041;-64
2023/03/05 08:05:41;;;;;;;10.95;5.03;;;;;;;;;;5032345;28;20095;-63
2023/03/05 08:08:07;;;;;;;19.08;6.55;;;;;;;;;;5032615;28;20034;-64
2023/03/05 08:10:34;;;;;;;11.35;5.65;;;;;;;;;;5032100;28;20060;-63
2023/03/05 08:12:59;;;;;;;15.82;6.47;;;;;;;;;;5033293;28;20105;-63
2023/03/05 08:15:25;;;;;;;8.23;4.60;;;;;;;;;;5032958;28;20452;-63
2023/03/05 08:17:50;;;;;;;10.48;4.47;;;;;;;;;;5032421;28;20025;-65
2023/03/05 08:20:16;;;;;;;13.80;6.18;;;;;;;;;;5033787;28;20029;-66
2023/03/05 08:22:41;;;;;;;13.95;5.35;;;;;;;;;;5025073;28;20030;-65
2023/03/05 08:25:07;;;;;;;17.23;6.68;;;;;;;;;;5022111;28;20034;-70
2023/03/05 08:27:32;;;;;;;18.52;6.50;;;;;;;;;;5034062;28;20029;-79
2023/03/05 08:30:00;;;;;;;15.48;6.05;;;;;;;;;;5032808;28;20465;-65
2023/03/05 08:32:26;;;;;;;9.30;5.50;;;;;;;;;;5014084;28;20029;-64
2023/03/05 08:34:56;;;;;;;16.55;6.30;;;;;;;;;;5014345;28;20217;-65
2023/03/05 08:37:22;;;;;;;17.10;6.00;;;;;;;;;;5014187;28;20057;-65
2023/03/05 08:39:47;;;;;;;12.07;5.65;;;;;;;;;;5030426;28;20281;-63
2023/03/05 08:42:12;;;;;;;14.43;5.03;;;;;;;;;;5033080;28;20430;-65
2023/03/05 08:44:38;;;;;;;11.95;4.70;;;;;;;;;;5032697;28;20049;-66
2023/03/05 08:47:03;;;;;;;9.02;4.55;;;;;;;;;;5031532;28;20068;-65
2023/03/05 08:49:28;;;;;;;10.15;5.22;;;;;;;;;;5033105;28;20029;-65
2023/03/05 08:51:54;;;;;;;9.43;4.63;;;;;;;;;;5030817;28;20045;-64
2023/03/05 08:54:19;;;;;;;12.63;4.40;;;;;;;;;;5032825;28;20033;-64
2023/03/05 08:56:44;;;;;;;10.82;4.95;;;;;;;;;;5010109;28;20663;-65
2023/03/05 08:59:10;;;;;;;13.63;5.88;;;;;;;;;;5013776;28;20025;-64
2023/03/05 09:01:35;;;;;;;7.43;4.85;;;;;;;;;;5030655;28;20025;-65
2023/03/05 09:04:01;;;;;;;7.53;4.25;;;;;;;;;;5032807;28;20037;-64
2023/03/05 09:06:26;;;;;;;11.73;4.47;;;;;;;;;;5032942;28;20351;-65
2023/03/05 09:08:52;;;;;;;10.85;4.88;;;;;;;;;;5031759;28;20026;-63
2023/03/05 09:11:18;;;;;;;11.02;5.05;;;;;;;;;;5030786;28;20104;-63
2023/03/05 09:13:43;;;;;;;9.73;4.40;;;;;;;;;;5031882;28;20025;-63
2023/03/05 09:16:14;;;;;;;13.20;5.60;;;;;;;;;;5032907;28;20442;-63
2023/03/05 09:18:40;;;;;;;7.70;4.70;;;;;;;;;;5014198;28;20446;-62
2023/03/05 09:21:15;;;;;;;9.38;4.70;;;;;;;;;;5031768;28;20033;-62
2023/03/05 09:23:41;;;;;;;13.32;5.10;;;;;;;;;;5031841;28;20128;-63
2023/03/05 09:26:09;;;;;;;8.70;4.45;;;;;;;;;;5032516;28;20055;-62
2023/03/05 09:28:34;;;;;;;13.10;5.93;;;;;;;;;;5031526;28;20486;-63
2023/03/05 09:31:04;;;;;;;14.63;5.90;;;;;;;;;;5030041;28;20033;-63
2023/03/05 09:33:31;;;;;;;11.80;5.50;;;;;;;;;;5032166;28;20033;-63
2023/03/05 09:35:57;;;;;;;9.38;5.60;;;;;;;;;;5031590;28;20017;-63
2023/03/05 09:38:22;;;;;;;12.20;5.30;;;;;;;;;;5032497;28;20030;-63
2023/03/05 09:40:58;;;;;;;10.35;5.30;;;;;;;;;;5029090;28;20079;-63
2023/03/05 09:43:57;;;;;;;14.15;5.45;;;;;;;;;;5011460;28;20521;-63
2023/03/05 09:46:44;;;;;;;11.30;5.93;;;;;;;;;;4991206;28;20045;-63
2023/03/05 09:49:15;;;;;;;12.15;6.15;;;;;;;;;;5032033;28;20056;-63
2023/03/05 09:51:45;;;;;;;11.23;5.65;;;;;;;;;;5030245;28;20041;-63
2023/03/05 09:54:22;;;;;;;9.25;5.43;;;;;;;;;;5032134;28;20049;-62
2023/03/05 09:56:52;;;;;;;12.13;6.40;;;;;;;;;;5031194;28;20029;-63
2023/03/05 09:59:40;;;;;;;12.23;7.27;;;;;;;;;;5014318;28;20450;-63
2023/03/05 10:02:25;;;;;;;13.85;6.50;;;;;;;;;;5029111;28;20037;-63
2023/03/05 10:05:14;;;;;;;11.82;6.50;;;;;;;;;;5013401;28;20428;-62
2023/03/05 10:07:43;;;;;;;12.75;6.65;;;;;;;;;;5030889;28;20045;-62
2023/03/05 10:10:17;;;;;;;13.90;7.70;;;;;;;;;;5030297;28;20033;-62
2023/03/05 10:12:47;;;;;;;12.30;7.78;;;;;;;;;;5030801;28;20034;-63
2023/03/05 10:15:38;;;;;;;16.83;7.82;;;;;;;;;;5031820;28;20095;-62
2023/03/05 10:18:27;;;;;;;15.60;7.85;;;;;;;;;;5031481;28;20037;-63
2023/03/05 10:21:17;;;;;;;14.73;8.27;;;;;;;;;;5029428;28;20038;-62
2023/03/05 10:24:10;;;;;;;12.98;7.70;;;;;;;;;;5031017;28;20040;-63
2023/03/05 10:27:01;;;;;;;13.27;7.55;;;;;;;;;;5031748;28;20030;-62
2023/03/05 10:29:32;;;;;;;12.32;7.32;;;;;;;;;;5014134;28;20377;-63
2023/03/05 10:32:00;;;;;;;17.92;7.72;;;;;;;;;;5028410;28;20609;-63
2023/03/05 10:34:51;;;;;;;13.50;6.60;;;;;;;;;;5031685;28;20034;-63
2023/03/05 10:37:35;;;;;;;12.20;6.27;;;;;;;;;;5031668;28;20121;-62
2023/03/05 10:40:18;;;;;;;8.85;5.07;;;;;;;;;;5028516;28;20394;-62
2023/03/05 10:42:57;;;;;;;8.90;4.68;;;;;;;;;;5029709;28;20117;-63
2023/03/05 10:45:30;;;;;;;8.65;4.70;;;;;;;;;;5031191;28;20057;-63
2023/03/05 10:48:26;;;;;;;9.18;4.85;;;;;;;;;;5030621;28;20037;-63
2023/03/05 10:51:07;;;;;;;5.72;3.70;;;;;;;;;;5029590;28;20034;-63
2023/03/05 10:53:35;;;;;;;8.38;4.13;;;;;;;;;;5031892;28;20342;-63
2023/03/05 10:56:05;;;;;;;7.50;4.18;;;;;;;;;;5032737;28;20107;-63
2023/03/05 10:58:31;;;;;;;8.10;3.72;;;;;;;;;;5036763;28;20059;-64
2023/03/05 11:01:02;;;;;;;6.93;4.10;;;;;;;;;;5034978;28;20025;-64
2023/03/05 11:03:46;;;;;;;;;;;;;;;;;;5039387;28;20425;-63
2023/03/05 11:06:13;;;;;;;5.85;3.05;;;;;;;;;;5018829;28;19909;-64
2023/03/05 11:08:39;;;;;;;4.38;2.75;;;;;;;;;;5036745;28;20032;-64
2023/03/05 11:11:18;;;;;;;4.88;3.05;;;;;;;;;;5032768;28;20033;-66
2023/03/05 11:13:49;;;;;;;5.32;2.83;;;;;;;;;;5034259;28;20029;-65
2023/03/05 11:16:19;;;;;;;7.53;3.78;;;;;;;;;;5034833;28;20045;-66
2023/03/05 11:18:45;;;;;;;9.70;3.65;;;;;;;;;;5034090;28;20060;-65
2023/03/05 11:21:26;;;;;;;5.65;3.38;;;;;;;;;;5033016;28;20033;-66
2023/03/05 11:24:05;;;;;;;6.45;3.50;;;;;;;;;;5034052;28;20033;-66
2023/03/05 11:26:32;;;;;;;5.15;3.28;;;;;;;;;;5034572;28;20531;-66
2023/03/05 11:29:00;;;;;;;4.72;2.67;;;;;;;;;;5034062;28;20457;-66
2023/03/05 11:31:32;;;;;;;5.57;2.30;;;;;;;;;;5033754;28;20030;-66
2023/03/05 11:34:22;;;;;;;5.53;2.60;;;;;;;;;;5033972;28;20029;-65
2023/03/05 11:36:54;;;;;;;8.43;2.88;;;;;;;;;;5031257;28;20140;-64
2023/03/05 11:39:22;;;;;;;6.75;3.08;;;;;;;;;;5034475;28;20049;-66
2023/03/05 11:41:50;;;;;;;6.07;2.72;;;;;;;;;;5033178;28;20029;-64
2023/03/05 11:44:27;;;;;;;4.25;2.60;;;;;;;;;;5033860;28;20125;-63
2023/03/05 11:47:01;;;;;;;5.90;2.50;;;;;;;;;;5032584;28;20033;-63
2023/03/05 11:49:29;;;;;;;4.35;2.40;;;;;;;;;;5034426;28;20044;-63
2023/03/05 11:52:14;;;;;;;4.30;2.40;;;;;;;;;;5033710;28;20029;-63
2023/03/05 11:54:57;;;;;;;4.50;2.40;;;;;;;;;;5034679;28;20370;-64
2023/03/05 11:57:24;;;;;;;6.30;3.20;;;;;;;;;;5032976;28;20173;-63
2023/03/05 11:59:54;;;;;;;5.22;2.83;;;;;;;;;;5033485;28;20470;-63
2023/03/05 12:02:23;;;;;;;5.60;3.17;;;;;;;;;;5034245;28;20025;-62
2023/03/05 12:04:49;;;;;;;5.30;3.13;;;;;;;;;;5033342;28;20035;-63
2023/03/05 12:07:33;;;;;;;6.38;3.13;;;;;;;;;;5030302;28;20073;-63
2023/03/05 12:10:00;;;;;;;4.90;3.10;;;;;;;;;;5033047;28;20119;-63
2023/03/05 12:12:56;;;;;;;4.32;2.90;;;;;;;;;;5032978;28;20036;-62
2023/03/05 12:15:43;;;;;;;8.32;3.60;;;;;;;;;;4979830;28;20048;-63
2023/03/05 12:18:36;;;;;;;5.28;3.08;;;;;;;;;;5033061;28;20448;-62
2023/03/05 12:21:06;;;;;;;5.40;3.00;;;;;;;;;;5033036;28;20064;-62
2023/03/05 12:23:53;;;;;;;7.63;2.40;;;;;;;;;;5032924;28;20037;-62
2023/03/05 12:26:58;;;;;;;3.80;2.10;;;;;;;;;;5033935;28;20489;-62
2023/03/05 12:29:40;;;;;;;6.05;2.40;;;;;;;;;;5033736;28;20064;-62
2023/03/05 12:32:30;;;;;;;5.63;2.30;;;;;;;;;;5032961;28;20036;-62
2023/03/05 12:34:56;;;;;;;3.85;2.10;;;;;;;;;;5017861;28;20042;-63
2023/03/05 12:37:22;;;;;;;5.75;2.20;;;;;;;;;;5033244;28;20429;-63
2023/03/05 12:40:18;;;;;;;5.15;2.30;;;;;;;;;;5032634;28;20035;-63
2023/03/05 12:42:45;;;;;;;3.28;1.80;;;;;;;;;;5031603;28;20052;-64
2023/03/05 12:45:11;;;;;;;3.65;2.10;;;;;;;;;;5032982;28;20053;-62
2023/03/05 12:47:41;;;;;;;2.28;1.70;;;;;;;;;;5033712;28;20389;-63
2023/03/05 12:50:31;;;;;;;3.07;1.87;;;;;;;;;;5032621;28;20109;-62
2023/03/05 12:53:18;;;;;;;4.07;2.03;;;;;;;;;;5020899;28;20064;-63
2023/03/05 12:55:46;;;;;;;4.60;1.90;;;;;;;;;;5033203;28;20322;-63
2023/03/05 12:58:20;;;;;;;4.65;2.20;;;;;;;;;;5031857;28;20108;-63
2023/03/05 13:01:07;;;;;;;3.00;1.80;;;;;;;;;;5032886;28;20135;-64
2023/03/05 13:03:35;;;;;;;3.03;1.90;;;;;;;;;;4980898;28;20437;-62
2023/03/05 13:06:05;;;;;;;5.47;1.90;;;;;;;;;;5032159;28;20042;-63
2023/03/05 13:08:36;;;;;;;5.30;2.10;;;;;;;;;;5033049;28;20040;-65
2023/03/05 13:11:03;;;;;;;2.85;1.65;;;;;;;;;;5032033;28;20041;-63
2023/03/05 13:13:33;;;;;;;3.67;2.15;;;;;;;;;;5032035;28;20033;-63
2023/03/05 13:15:59;;;;;;;3.95;1.70;;;;;;;;;;5031891;28;20121;-63
2023/03/05 13:18:25;;;;;;;6.75;1.98;;;;;;;;;;5030191;28;20112;-62
2023/03/05 13:21:04;;;;;;;4.05;1.70;;;;;;;;;;5031914;28;20112;-63
2023/03/05 13:23:31;;;;;;;3.92;1.60;;;;;;;;;;5031646;28;20063;-63
2023/03/05 13:26:19;;;;;;;2.83;1.50;;;;;;;;;;5031864;28;20057;-62
2023/03/05 13:29:05;;;;;;;2.65;1.70;;;;;;;;;;5032445;28;20425;-62
2023/03/05 13:31:32;;;;;;;2.78;1.83;;;;;;;;;;5018603;28;20049;-62
2023/03/05 13:34:09;;;;;;;6.00;1.90;;;;;;;;;;5012325;28;20363;-63
2023/03/05 13:36:36;;;;;;;3.33;1.80;;;;;;;;;;5032518;28;20079;-62
2023/03/05 13:39:02;;;;;;;3.35;1.65;;;;;;;;;;5031739;28;20398;-63
2023/03/05 13:41:28;;;;;;;4.25;2.05;;;;;;;;;;5032394;28;20041;-63
2023/03/05 13:43:59;;;;;;;2.47;1.70;;;;;;;;;;5030727;28;20049;-64
2023/03/05 13:46:26;;;;;;;;;;;;;;;;;;5012626;28;20037;-61
2023/03/05 13:48:52;;;;;;;5.70;2.40;;;;;;;;;;5028606;28;19963;-63
2023/03/05 13:51:17;;;;;;;3.13;1.60;;;;;;;;;;5032157;28;20061;-63
2023/03/05 13:53:43;;;;;;;3.67;1.50;;;;;;;;;;5032155;28;20036;-62
2023/03/05 13:56:13;;;;;;;4.40;1.60;;;;;;;;;;5030995;28;20033;-62
2023/03/05 13:58:55;;;;;;;3.20;1.95;;;;;;;;;;5034817;28;20029;-62
2023/03/05 14:01:39;;;;;;;3.45;1.50;;;;;;;;;;5013916;28;20123;-62
2023/03/05 14:04:13;;;;;;;2.28;1.20;;;;;;;;;;5031116;28;20062;-65
2023/03/05 14:06:55;;;;;;;2.72;1.80;;;;;;;;;;5030645;28;20041;-62
2023/03/05 14:09:22;;;;;;;;;;;;;;;;;;5014707;28;20040;-62
2023/03/05 14:11:53;;;;;;;2.72;1.70;;;;;;;;;;5030100;28;19919;-63
2023/03/05 14:14:22;;;;;;;3.78;1.60;;;;;;;;;;5028660;28;20116;-62
2023/03/05 14:16:48;;;;;;;3.00;1.80;;;;;;;;;;5031661;28;20124;-62
2023/03/05 14:19:37;;;;;;;2.70;1.60;;;;;;;;;;5012171;28;20347;-63
2023/03/05 14:22:04;;;;;;;2.90;1.52;;;;;;;;;;5011054;28;20029;-64
2023/03/05 14:24:31;;;;;;;3.42;1.70;;;;;;;;;;5029684;28;20029;-62
2023/03/05 14:26:59;;;;;;;4.80;2.20;;;;;;;;;;5029812;28;20600;-62
2023/03/05 14:29:26;;;;;;;2.88;1.70;;;;;;;;;;5030419;28;20435;-62
2023/03/05 14:32:04;;;;;;;3.78;1.65;;;;;;;;;;5028982;28;20060;-65
2023/03/05 14:34:31;;;;;;;4.75;1.80;;;;;;;;;;5030765;28;20136;-63
2023/03/05 14:37:20;;;;;;;4.55;1.77;;;;;;;;;;5030888;28;20033;-63
2023/03/05 14:40:11;;;;;;;3.53;1.80;;;;;;;;;;5031340;28;20104;-63
2023/03/05 14:42:50;;;;;;;4.00;1.80;;;;;;;;;;5024879;28;20490;-63
2023/03/05 14:45:21;;;;;;;4.10;1.40;;;;;;;;;;5030229;28;20057;-62
2023/03/05 14:47:48;;;;;;;3.58;1.52;;;;;;;;;;5013898;28;20428;-63
2023/03/05 14:50:19;;;;;;;2.30;1.80;;;;;;;;;;5027987;28;20040;-64